Time;durP1;ratioP1;P1;durP2;ratioP2;P2;SDS_P1;SDS_P2;PMS_P1;PMS_P2;Temp;Humidity;BMP_temperature;BMP_pressure;BME280_temperature;BME280_humidity;BME280_pressure;Samples;Min_cycle;Max_cycle;Signal;HPM_P1;HPM_P2
2021/08/11 00:01:26;;;;;;;4.60;4.10;;;24.10;75.10;;;;;;5035933;28;20030;-61
2021/08/11 00:03:52;;;;;;;5.18;4.43;;;24.10;75.40;;;;;;5032175;28;20045;-61
2021/08/11 00:06:17;;;;;;;5.50;4.82;;;24.10;75.50;;;;;;5035987;28;20713;-61
2021/08/11 00:08:47;;;;;;;5.72;4.75;;;24.00;75.80;;;;;;5033330;28;20064;-61
2021/08/11 00:11:13;;;;;;;4.90;4.07;;;24.00;75.70;;;;;;5031908;28;20029;-61
2021/08/11 00:13:39;;;;;;;5.28;4.35;;;24.10;75.80;;;;;;5034115;28;20060;-61
2021/08/11 00:16:05;;;;;;;6.80;4.13;;;24.00;75.70;;;;;;5037060;28;20076;-61
2021/08/11 00:18:31;;;;;;;5.47;4.85;;;24.00;75.70;;;;;;5034689;28;20033;-61
2021/08/11 00:20:57;;;;;;;6.28;4.68;;;24.00;75.90;;;;;;5033658;28;20022;-61
2021/08/11 00:23:25;;;;;;;6.28;5.10;;;23.90;76.10;;;;;;5034505;28;20503;-61
2021/08/11 00:25:54;;;;;;;4.72;4.10;;;23.90;76.30;;;;;;5034575;28;20488;-61
2021/08/11 00:28:23;;;;;;;6.35;4.88;;;23.90;76.30;;;;;;5035792;28;20444;-61
2021/08/11 00:30:49;;;;;;;4.88;4.35;;;23.90;76.40;;;;;;5032364;28;20415;-61
2021/08/11 00:33:15;;;;;;;5.10;4.60;;;23.90;76.40;;;;;;5033338;28;20029;-61
2021/08/11 00:35:41;;;;;;;7.43;4.82;;;23.90;76.30;;;;;;5034317;28;20021;-61
2021/08/11 00:38:07;;;;;;;6.45;4.35;;;23.80;76.40;;;;;;5037547;28;20037;-61
2021/08/11 00:40:33;;;;;;;6.18;4.50;;;23.80;76.20;;;;;;5033850;28;20040;-61
2021/08/11 00:42:59;;;;;;;5.78;4.40;;;23.80;76.20;;;;;;5033974;28;20034;-61
2021/08/11 00:45:25;;;;;;;5.45;4.80;;;23.70;76.20;;;;;;5034169;28;20079;-61
2021/08/11 00:47:51;;;;;;;5.50;4.50;;;23.70;76.40;;;;;;5032524;28;20469;-61
2021/08/11 00:50:18;;;;;;;7.30;4.53;;;23.70;76.50;;;;;;5033041;28;20034;-61
2021/08/11 00:52:44;;;;;;;6.55;5.15;;;23.70;76.70;;;;;;5032990;28;20032;-61
2021/08/11 00:55:11;;;;;;;5.75;4.82;;;23.60;77.00;;;;;;5033778;28;20525;-61
2021/08/11 00:57:37;;;;;;;5.55;4.88;;;23.60;77.30;;;;;;5033734;28;20109;-61
2021/08/11 01:00:03;;;;;;;5.03;4.25;;;23.60;77.30;;;;;;5033772;28;20018;-61
2021/08/11 01:02:30;;;;;;;5.38;4.57;;;23.60;77.40;;;;;;5036992;28;20021;-60
2021/08/11 01:04:59;;;;;;;5.93;4.70;;;23.60;77.20;;;;;;5033203;28;20044;-61
2021/08/11 01:07:27;;;;;;;5.50;4.90;;;23.60;78.10;;;;;;5032166;28;20525;-61
2021/08/11 01:09:54;;;;;;;6.15;4.63;;;23.50;77.90;;;;;;5034209;28;20021;-61
2021/08/11 01:12:24;;;;;;;5.57;4.78;;;23.50;77.80;;;;;;5034125;28;20022;-61
2021/08/11 01:14:54;;;;;;;6.43;4.30;;;23.50;77.60;;;;;;5033344;28;20049;-61
2021/08/11 01:17:22;;;;;;;4.57;4.18;;;23.50;77.70;;;;;;5033959;28;20486;-61
2021/08/11 01:19:48;;;;;;;5.90;4.50;;;23.50;77.50;;;;;;5032476;28;20025;-61
2021/08/11 01:22:23;;;;;;;6.60;4.75;;;23.50;77.80;;;;;;5034393;28;20571;-61
2021/08/11 01:25:01;;;;;;;5.88;4.72;;;23.40;77.70;;;;;;5033093;28;20104;-61
2021/08/11 01:27:51;;;;;;;5.32;4.82;;;23.40;77.80;;;;;;5030763;28;20034;-61
2021/08/11 01:30:26;;;;;;;5.78;5.15;;;23.40;77.80;;;;;;5033019;28;20555;-61
2021/08/11 01:33:22;;;;;;;5.38;4.82;;;23.40;78.20;;;;;;5033576;28;20071;-61
2021/08/11 01:36:01;;;;;;;6.22;4.70;;;23.30;78.50;;;;;;5032333;28;20034;-61
2021/08/11 01:38:32;;;;;;;5.50;4.97;;;23.30;78.40;;;;;;5032336;28;20022;-61
2021/08/11 01:41:01;;;;;;;5.35;4.85;;;23.30;78.60;;;;;;5034955;28;20040;-61
2021/08/11 01:43:33;;;;;;;7.05;4.82;;;23.30;79.10;;;;;;5032964;28;20076;-61
2021/08/11 01:45:59;;;;;;;5.30;4.70;;;23.30;78.70;;;;;;5032457;28;20022;-61
2021/08/11 01:48:30;;;;;;;5.63;4.68;;;23.30;78.70;;;;;;5034375;28;20029;-61
2021/08/11 01:50:57;;;;;;;5.15;4.55;;;23.30;78.60;;;;;;5030706;28;20021;-61
2021/08/11 01:53:25;;;;;;;6.13;4.75;;;23.30;78.80;;;;;;5031234;28;20029;-61
2021/08/11 01:55:54;;;;;;;5.07;4.57;;;23.20;78.80;;;;;;5033187;28;20102;-61
2021/08/11 01:58:24;;;;;;;6.97;5.25;;;23.20;78.80;;;;;;5033157;28;20036;-61
2021/08/11 02:00:51;;;;;;;5.35;4.53;;;23.20;78.80;;;;;;5033122;28;20049;-61
2021/08/11 02:03:21;;;;;;;5.80;4.80;;;23.20;79.00;;;;;;5030352;28;20104;-61
2021/08/11 02:05:49;;;;;;;5.27;4.50;;;23.10;79.00;;;;;;5032951;28;20115;-61
2021/08/11 02:08:16;;;;;;;5.82;5.22;;;23.10;79.00;;;;;;5030345;28;20037;-61
2021/08/11 02:10:43;;;;;;;7.10;5.20;;;23.10;79.30;;;;;;5032431;28;20027;-61
2021/08/11 02:13:09;;;;;;;5.90;5.30;;;23.10;79.20;;;;;;5034417;28;20363;-61
2021/08/11 02:15:36;;;;;;;6.13;4.82;;;23.10;79.20;;;;;;5032829;28;20029;-61
2021/08/11 02:18:03;;;;;;;5.32;4.82;;;23.10;79.40;;;;;;5032838;28;20489;-61
2021/08/11 02:20:29;;;;;;;5.57;5.00;;;23.10;79.50;;;;;;5033068;28;20033;-61
2021/08/11 02:22:54;;;;;;;5.60;4.65;;;23.10;80.40;;;;;;5028576;28;20084;-61
2021/08/11 02:25:20;;;;;;;4.57;4.18;;;23.10;79.60;;;;;;5032271;28;20053;-61
2021/08/11 02:27:53;;;;;;;7.43;4.90;;;23.10;79.80;;;;;;5033249;28;20468;-61
2021/08/11 02:30:24;;;;;;;6.22;5.10;;;23.10;79.50;;;;;;5031820;28;20115;-61
2021/08/11 02:33:02;;;;;;;5.95;5.25;;;23.00;79.80;;;;;;5034281;28;20080;-61
2021/08/11 02:35:32;;;;;;;5.25;4.63;;;23.00;79.70;;;;;;5032744;28;20664;-61
2021/08/11 02:38:09;;;;;;;6.30;4.70;;;23.00;79.80;;;;;;5033442;28;20084;-61
2021/08/11 02:40:36;;;;;;;5.95;5.07;;;23.00;80.20;;;;;;5030161;28;20033;-62
2021/08/11 02:43:21;;;;;;;5.70;5.00;;;23.00;79.90;;;;;;5032299;28;20108;-61
2021/08/11 02:45:53;;;;;;;5.78;4.80;;;23.00;79.90;;;;;;5028980;28;20429;-61
2021/08/11 02:48:20;;;;;;;6.55;5.70;;;23.00;79.90;;;;;;5030045;28;20059;-61
2021/08/11 02:50:47;;;;;;;6.03;5.35;;;22.90;80.50;;;;;;5032521;28;20045;-61
2021/08/11 02:53:15;;;;;;;6.80;5.45;;;22.90;79.90;;;;;;5032484;28;20029;-61
2021/08/11 02:55:41;;;;;;;6.18;5.28;;;22.90;80.30;;;;;;5032572;28;20060;-61
2021/08/11 02:58:07;;;;;;;6.20;4.88;;;22.90;81.00;;;;;;5033744;28;20025;-61
2021/08/11 03:00:34;;;;;;;6.40;5.75;;;22.90;80.20;;;;;;5033339;28;20421;-61
2021/08/11 03:03:00;;;;;;;6.53;5.10;;;22.90;80.50;;;;;;5038132;28;20040;-61
2021/08/11 03:05:26;;;;;;;6.20;5.30;;;22.80;80.50;;;;;;5036108;28;20107;-61
2021/08/11 03:07:53;;;;;;;5.25;4.70;;;22.80;80.40;;;;;;5037451;28;20029;-61
2021/08/11 03:10:20;;;;;;;6.22;5.03;;;22.90;80.70;;;;;;5037986;28;20032;-61
2021/08/11 03:12:46;;;;;;;5.30;4.80;;;22.90;80.60;;;;;;5037458;28;20473;-61
2021/08/11 03:15:14;;;;;;;6.40;5.00;;;22.90;80.60;;;;;;5035213;28;20028;-61
2021/08/11 03:17:40;;;;;;;6.43;4.90;;;22.90;80.60;;;;;;5035700;28;20029;-61
2021/08/11 03:20:07;;;;;;;6.75;5.25;;;22.90;80.50;;;;;;5035845;28;20083;-61
2021/08/11 03:22:34;;;;;;;5.93;4.53;;;22.90;80.40;;;;;;5037258;28;20573;-61
2021/08/11 03:25:00;;;;;;;6.63;4.47;;;22.90;80.50;;;;;;5035336;28;20475;-61
2021/08/11 03:27:26;;;;;;;5.50;5.00;;;22.90;80.50;;;;;;5032668;28;20029;-61
2021/08/11 03:29:51;;;;;;;5.80;5.05;;;22.90;80.30;;;;;;5034834;28;20373;-61
2021/08/11 03:32:17;;;;;;;6.47;5.15;;;22.90;80.30;;;;;;5036393;28;20031;-61
2021/08/11 03:34:43;;;;;;;5.75;5.20;;;23.00;80.20;;;;;;5036437;28;20069;-61
2021/08/11 03:37:13;;;;;;;5.22;4.72;;;23.00;80.20;;;;;;5037693;28;20378;-61
2021/08/11 03:39:39;;;;;;;6.18;5.45;;;23.00;80.00;;;;;;5037534;28;20025;-61
2021/08/11 03:42:04;;;;;;;6.85;5.50;;;23.00;80.10;;;;;;5036141;28;20528;-61
2021/08/11 03:44:30;;;;;;;5.65;5.05;;;23.00;80.10;;;;;;5035101;28;20029;-61
2021/08/11 03:46:56;;;;;;;5.90;5.30;;;23.00;79.70;;;;;;5034574;28;20032;-61
2021/08/11 03:49:21;;;;;;;5.63;5.03;;;23.10;79.70;;;;;;5035482;28;20170;-61
2021/08/11 03:51:47;;;;;;;5.60;5.00;;;23.10;79.80;;;;;;5034984;28;20030;-61
2021/08/11 03:54:13;;;;;;;6.28;5.40;;;23.10;79.90;;;;;;5035030;28;20083;-61
2021/08/11 03:56:38;;;;;;;6.10;5.55;;;23.10;80.20;;;;;;5037596;28;20025;-61
2021/08/11 03:59:05;;;;;;;5.50;5.00;;;23.10;79.90;;;;;;5034840;28;20398;-61
2021/08/11 04:01:31;;;;;;;6.00;5.35;;;23.20;79.80;;;;;;5032834;28;20034;-61
2021/08/11 04:03:56;;;;;;;6.68;5.13;;;23.20;79.80;;;;;;5029406;28;20036;-61
2021/08/11 04:06:22;;;;;;;8.02;5.80;;;23.30;79.50;;;;;;5031056;28;20041;-61
2021/08/11 04:08:48;;;;;;;6.35;5.18;;;23.30;79.30;;;;;;5033824;28;20087;-61
2021/08/11 04:11:13;;;;;;;6.65;5.78;;;23.30;79.40;;;;;;5034736;28;20079;-61
2021/08/11 04:13:39;;;;;;;5.88;5.22;;;23.30;79.60;;;;;;5034529;28;20022;-61
2021/08/11 04:16:05;;;;;;;6.55;5.45;;;23.40;79.10;;;;;;5035537;28;20083;-61
2021/08/11 04:18:31;;;;;;;5.15;4.65;;;23.50;79.00;;;;;;5034889;28;20022;-61
2021/08/11 04:20:56;;;;;;;7.55;4.88;;;23.60;79.00;;;;;;5033967;28;20021;-61
2021/08/11 04:23:22;;;;;;;6.53;5.22;;;23.70;79.10;;;;;;5035503;28;20029;-60
2021/08/11 04:25:48;;;;;;;6.07;5.47;;;23.90;78.80;;;;;;5034467;28;20029;-61
2021/08/11 04:28:13;;;;;;;5.70;5.10;;;24.20;77.90;;;;;;5035166;28;20091;-61
2021/08/11 04:30:42;;;;;;;5.43;4.60;;;24.40;76.80;;;;;;5033294;28;20038;-61
2021/08/11 04:33:08;;;;;;;6.15;5.00;;;24.50;76.20;;;;;;5035389;28;20025;-61
2021/08/11 04:35:39;;;;;;;5.80;5.13;;;24.60;75.70;;;;;;5034452;28;20397;-61
2021/08/11 04:38:05;;;;;;;5.93;4.53;;;24.70;75.20;;;;;;5036797;28;20541;-61
2021/08/11 04:40:31;;;;;;;5.13;4.57;;;24.80;75.10;;;;;;5034715;28;20108;-61
2021/08/11 04:42:57;;;;;;;5.82;5.10;;;24.80;74.40;;;;;;5031236;28;20128;-61
2021/08/11 04:45:22;;;;;;;5.97;4.72;;;24.90;74.10;;;;;;5030566;28;20033;-60
2021/08/11 04:47:48;;;;;;;6.55;4.75;;;25.00;74.80;;;;;;5031760;28;20029;-61
2021/08/11 04:50:14;;;;;;;5.32;4.07;;;25.10;74.00;;;;;;5032681;28;20108;-58
2021/08/11 04:52:40;;;;;;;5.20;4.70;;;25.40;74.40;;;;;;5033153;28;20128;-57
2021/08/11 04:55:07;;;;;;;4.93;4.43;;;25.80;73.70;;;;;;5026945;28;20025;-64
2021/08/11 04:57:33;;;;;;;4.80;4.00;;;26.40;72.50;;;;;;5029525;28;20034;-63
2021/08/11 04:59:59;;;;;;;4.75;4.25;;;26.90;70.90;;;;;;5036643;28;20025;-64
2021/08/11 05:02:24;;;;;;;4.53;4.13;;;27.30;69.60;;;;;;5032206;28;20089;-63
2021/08/11 05:04:50;;;;;;;4.88;4.10;;;27.50;68.50;;;;;;5033876;28;23661;-63
2021/08/11 05:07:16;;;;;;;5.18;4.68;;;27.70;67.90;;;;;;5028132;28;20104;-63
2021/08/11 05:09:41;;;;;;;5.90;4.35;;;27.80;67.50;;;;;;5028466;28;20377;-63
2021/08/11 05:12:07;;;;;;;7.68;4.20;;;28.00;66.80;;;;;;5027747;28;20037;-63
2021/08/11 05:14:34;;;;;;;5.35;4.25;;;28.30;66.10;;;;;;5029157;28;20045;-63
2021/08/11 05:17:00;;;;;;;6.35;4.35;;;28.40;65.10;;;;;;5029601;28;20029;-63
2021/08/11 05:19:26;;;;;;;5.35;4.35;;;28.30;64.80;;;;;;5021260;28;20370;-63
2021/08/11 05:21:51;;;;;;;5.78;4.78;;;28.20;64.70;;;;;;5027327;28;20025;-64
2021/08/11 05:24:18;;;;;;;5.50;4.38;;;28.00;64.90;;;;;;5026634;28;20025;-63
2021/08/11 05:26:45;;;;;;;4.93;4.25;;;27.80;64.90;;;;;;5025990;28;20030;-64
2021/08/11 05:29:17;;;;;;;5.38;4.72;;;27.70;65.40;;;;;;5028670;28;20037;-63
2021/08/11 05:31:42;;;;;;;5.60;4.40;;;27.50;65.40;;;;;;5024038;28;20046;-63
2021/08/11 05:34:09;;;;;;;5.03;4.53;;;27.50;65.50;;;;;;5025023;28;20058;-62
2021/08/11 05:36:35;;;;;;;5.22;4.72;;;27.50;65.50;;;;;;5024288;28;20495;-62
2021/08/11 05:39:01;;;;;;;5.65;5.00;;;27.40;65.50;;;;;;5024049;28;20044;-62
2021/08/11 05:41:26;;;;;;;6.07;4.60;;;27.20;65.50;;;;;;5026637;28;20037;-64
2021/08/11 05:43:52;;;;;;;6.18;4.88;;;27.10;65.90;;;;;;5025613;28;20025;-64
2021/08/11 05:46:18;;;;;;;5.70;5.13;;;26.90;66.30;;;;;;5027588;28;20729;-64
2021/08/11 05:48:43;;;;;;;5.55;4.78;;;26.80;66.30;;;;;;5028433;28;20465;-61
2021/08/11 05:51:09;;;;;;;7.07;4.85;;;26.70;66.50;;;;;;5021686;28;20032;-63
2021/08/11 05:53:34;;;;;;;7.53;4.93;;;26.60;66.80;;;;;;5021874;28;20082;-65
2021/08/11 05:56:00;;;;;;;5.20;4.70;;;26.50;67.00;;;;;;5020032;28;20021;-64
2021/08/11 05:58:27;;;;;;;8.30;5.32;;;26.40;67.20;;;;;;5022797;28;20365;-64
2021/08/11 06:00:52;;;;;;;8.15;5.32;;;26.40;67.30;;;;;;5021441;28;20041;-63
2021/08/11 06:03:18;;;;;;;7.30;5.15;;;26.30;67.40;;;;;;5023964;28;20025;-65
2021/08/11 06:05:43;;;;;;;5.35;4.82;;;26.30;67.70;;;;;;5024093;28;20121;-64
2021/08/11 06:08:10;;;;;;;5.57;5.00;;;26.30;68.00;;;;;;5023599;28;20045;-65
2021/08/11 06:10:35;;;;;;;5.75;5.13;;;26.30;68.20;;;;;;5016075;28;20022;-64
2021/08/11 06:13:02;;;;;;;5.93;5.22;;;26.40;68.20;;;;;;5020948;28;20032;-64
2021/08/11 06:15:27;;;;;;;6.25;5.63;;;26.40;68.50;;;;;;5025353;28;20626;-65
2021/08/11 06:17:53;;;;;;;6.03;5.20;;;26.50;68.40;;;;;;5026173;28;20051;-65
2021/08/11 06:20:21;;;;;;;6.22;5.45;;;26.50;68.50;;;;;;5023528;28;20025;-64
2021/08/11 06:22:48;;;;;;;8.30;5.30;;;26.60;68.60;;;;;;5020552;28;20025;-64
2021/08/11 06:25:14;;;;;;;5.90;5.03;;;26.70;68.50;;;;;;5021722;28;20068;-64
2021/08/11 06:27:40;;;;;;;9.20;5.55;;;26.80;68.50;;;;;;5026502;28;20033;-65
2021/08/11 06:30:08;;;;;;;6.07;5.47;;;26.80;68.40;;;;;;5023836;28;20049;-63
2021/08/11 06:32:34;;;;;;;6.28;5.60;;;26.80;68.50;;;;;;5032861;28;20024;-64
2021/08/11 06:34:59;;;;;;;5.95;5.35;;;26.90;68.30;;;;;;5031630;28;20062;-63
2021/08/11 06:37:25;;;;;;;9.95;5.60;;;26.90;68.30;;;;;;5030159;28;21630;-64
2021/08/11 06:39:51;;;;;;;6.00;5.40;;;26.90;68.40;;;;;;5028918;28;20061;-64
2021/08/11 06:42:16;;;;;;;6.65;5.95;;;26.90;68.40;;;;;;5027190;28;20038;-64
2021/08/11 06:44:42;;;;;;;6.95;5.35;;;26.90;68.40;;;;;;5023953;28;20813;-64
2021/08/11 06:47:08;;;;;;;7.10;5.68;;;26.90;68.40;;;;;;5021305;28;20030;-62
2021/08/11 06:49:34;;;;;;;6.07;5.47;;;26.90;68.50;;;;;;5021865;28;20112;-64
2021/08/11 06:51:59;;;;;;;5.97;5.20;;;26.90;68.60;;;;;;5025223;28;20025;-63
2021/08/11 06:54:25;;;;;;;6.18;5.25;;;26.80;68.70;;;;;;5022638;28;20123;-65
2021/08/11 06:56:51;;;;;;;8.93;5.65;;;26.80;68.70;;;;;;5021226;28;20037;-64
2021/08/11 06:59:16;;;;;;;6.82;6.13;;;26.80;68.90;;;;;;5024108;28;20038;-64
2021/08/11 07:01:42;;;;;;;6.85;5.53;;;26.90;68.80;;;;;;5017745;28;20057;-64
2021/08/11 07:04:08;;;;;;;6.57;5.43;;;26.90;68.80;;;;;;5023136;28;20042;-64
2021/08/11 07:06:33;;;;;;;7.18;5.70;;;26.90;69.10;;;;;;5020298;28;20029;-64
2021/08/11 07:08:59;;;;;;;7.78;5.50;;;26.90;69.20;;;;;;5020164;28;20148;-64
2021/08/11 07:11:25;;;;;;;7.75;5.57;;;26.90;69.30;;;;;;5024139;28;20029;-64
2021/08/11 07:13:50;;;;;;;6.22;5.63;;;26.90;69.20;;;;;;5022494;28;20032;-63
2021/08/11 07:16:16;;;;;;;6.93;6.00;;;26.90;69.30;;;;;;5019982;28;20034;-63
2021/08/11 07:18:42;;;;;;;6.57;5.82;;;26.90;69.30;;;;;;5020174;28;20485;-63
2021/08/11 07:21:08;;;;;;;6.85;5.43;;;26.90;69.30;;;;;;5021643;28;20215;-63
2021/08/11 07:23:33;;;;;;;6.80;5.93;;;26.90;69.60;;;;;;5019749;28;20171;-62
2021/08/11 07:25:59;;;;;;;6.57;5.30;;;26.90;69.60;;;;;;5022625;28;20030;-63
2021/08/11 07:28:25;;;;;;;6.40;4.95;;;26.90;69.70;;;;;;5018168;28;20022;-63
2021/08/11 07:30:50;;;;;;;5.97;5.38;;;26.90;69.70;;;;;;5016704;28;20524;-62
2021/08/11 07:33:16;;;;;;;9.00;5.63;;;26.90;69.80;;;;;;5021738;28;23218;-63
2021/08/11 07:35:43;;;;;;;6.10;5.50;;;26.90;70.00;;;;;;5019814;28;20103;-64
2021/08/11 07:38:09;;;;;;;5.88;5.18;;;26.80;69.90;;;;;;5021149;28;20029;-64
2021/08/11 07:40:36;;;;;;;7.10;5.70;;;26.80;70.10;;;;;;5023751;28;20473;-64
2021/08/11 07:43:02;;;;;;;6.35;5.75;;;26.80;70.10;;;;;;5016327;28;20080;-64
2021/08/11 07:45:30;;;;;;;6.20;5.60;;;26.80;70.10;;;;;;5013664;28;20144;-63
2021/08/11 07:47:56;;;;;;;6.90;5.45;;;26.80;70.10;;;;;;5014627;28;20053;-61
2021/08/11 07:50:26;;;;;;;5.75;5.15;;;26.70;70.30;;;;;;5019799;28;20056;-64
2021/08/11 07:52:52;;;;;;;6.97;6.10;;;26.80;70.40;;;;;;5017057;28;20188;-63
2021/08/11 07:55:18;;;;;;;7.32;5.97;;;26.80;70.30;;;;;;5019114;28;20026;-64
2021/08/11 07:57:44;;;;;;;6.75;5.72;;;26.80;70.40;;;;;;5017865;28;20033;-62
2021/08/11 08:00:11;;;;;;;8.82;6.60;;;26.80;70.50;;;;;;5014590;28;20021;-64
2021/08/11 08:02:37;;;;;;;7.53;6.32;;;26.80;70.60;;;;;;5022906;28;20025;-64
2021/08/11 08:05:03;;;;;;;6.85;6.00;;;26.80;70.70;;;;;;5017232;28;20133;-64
2021/08/11 08:07:30;;;;;;;6.97;5.70;;;26.80;70.70;;;;;;5018511;28;20025;-64
2021/08/11 08:09:56;;;;;;;6.53;5.90;;;26.80;70.50;;;;;;5020891;28;20052;-64
2021/08/11 08:12:22;;;;;;;7.32;6.60;;;26.80;70.70;;;;;;5021733;28;20029;-64
2021/08/11 08:14:47;;;;;;;7.32;6.60;;;26.80;70.60;;;;;;5022074;28;20095;-64
2021/08/11 08:17:13;;;;;;;6.68;5.68;;;26.80;70.70;;;;;;5017157;28;20174;-63
2021/08/11 08:19:39;;;;;;;6.95;6.32;;;26.80;70.90;;;;;;5018303;28;20485;-63
2021/08/11 08:22:05;;;;;;;6.93;5.95;;;26.80;70.80;;;;;;5011931;28;20099;-62
2021/08/11 08:24:32;;;;;;;7.15;6.43;;;26.80;70.90;;;;;;5011341;28;20524;-63
2021/08/11 08:26:59;;;;;;;7.10;6.40;;;26.80;71.10;;;;;;5012086;28;20575;-62
2021/08/11 08:29:25;;;;;;;8.48;6.60;;;26.80;71.10;;;;;;5012284;28;20662;-63
2021/08/11 08:31:50;;;;;;;10.50;6.25;;;26.90;71.70;;;;;;5019065;28;20049;-63
2021/08/11 08:34:16;;;;;;;8.30;6.70;;;26.90;71.10;;;;;;5014820;28;20103;-64
2021/08/11 08:36:42;;;;;;;6.97;6.28;;;26.90;71.10;;;;;;5015536;28;20424;-64
2021/08/11 08:39:08;;;;;;;7.13;6.43;;;26.90;71.30;;;;;;5014577;28;20034;-64
2021/08/11 08:41:35;;;;;;;6.85;6.05;;;26.90;71.30;;;;;;5020096;28;20491;-64
2021/08/11 08:44:01;;;;;;;7.45;6.15;;;26.90;71.50;;;;;;5012139;28;22499;-63
2021/08/11 08:46:27;;;;;;;6.75;6.03;;;27.00;71.40;;;;;;5016999;28;20147;-65
2021/08/11 08:48:54;;;;;;;6.15;5.57;;;27.00;71.40;;;;;;5019353;28;20065;-63
2021/08/11 08:51:23;;;;;;;6.93;6.20;;;27.00;71.40;;;;;;5014102;28;20230;-62
2021/08/11 08:53:49;;;;;;;7.50;5.95;;;27.00;71.60;;;;;;5004408;28;20088;-64
2021/08/11 08:56:15;;;;;;;6.90;5.95;;;27.10;71.50;;;;;;5011701;28;20037;-64
2021/08/11 08:58:45;;;;;;;6.22;5.63;;;27.10;71.40;;;;;;5014385;28;20022;-63
2021/08/11 09:01:10;;;;;;;8.15;6.32;;;27.10;72.10;;;;;;5013473;28;21053;-63
2021/08/11 09:03:36;;;;;;;5.97;5.38;;;27.10;71.20;;;;;;5014820;28;20045;-64
2021/08/11 09:06:02;;;;;;;6.45;5.75;;;27.10;71.00;;;;;;5012171;28;20040;-64
2021/08/11 09:08:28;;;;;;;7.35;5.10;;;27.10;70.90;;;;;;5011958;28;20433;-63
2021/08/11 09:10:54;;;;;;;5.90;5.30;;;27.20;70.90;;;;;;5016141;28;20084;-63
2021/08/11 09:13:22;;;;;;;6.78;5.20;;;27.20;70.90;;;;;;5011909;28;20025;-63
2021/08/11 09:15:53;;;;;;;7.00;5.38;;;27.20;70.60;;;;;;5016071;28;20025;-63
2021/08/11 09:18:21;;;;;;;6.57;5.50;;;27.20;70.50;;;;;;5009073;28;20037;-63
2021/08/11 09:21:10;;;;;;;5.18;4.68;;;27.20;70.40;;;;;;5005637;28;20037;-63
2021/08/11 09:23:44;;;;;;;5.63;5.03;;;27.20;70.50;;;;;;5009145;28;20137;-63
2021/08/11 09:26:14;;;;;;;5.68;4.55;;;27.20;70.40;;;;;;5012978;28;20034;-64
2021/08/11 09:28:45;;;;;;;6.25;4.95;;;27.20;70.30;;;;;;5006627;28;20082;-63
2021/08/11 09:31:30;;;;;;;6.15;4.47;;;27.20;70.40;;;;;;4998631;28;20495;-63
2021/08/11 09:34:04;;;;;;;6.60;4.97;;;27.20;70.30;;;;;;5003638;28;20033;-64
2021/08/11 09:36:51;;;;;;;5.75;5.20;;;27.20;70.50;;;;;;5010292;28;20040;-63
2021/08/11 09:39:18;;;;;;;6.50;4.68;;;27.20;70.50;;;;;;5003964;28;20029;-64
2021/08/11 09:41:57;;;;;;;5.57;4.88;;;27.20;70.70;;;;;;5008523;28;20036;-63
2021/08/11 09:44:23;;;;;;;6.90;5.05;;;27.20;70.80;;;;;;5012330;28;20156;-64
2021/08/11 09:46:49;;;;;;;6.38;5.15;;;27.20;70.70;;;;;;5011129;28;20030;-64
2021/08/11 09:49:24;;;;;;;7.20;5.25;;;27.20;70.60;;;;;;5013969;28;20033;-64
2021/08/11 09:51:59;;;;;;;6.22;5.10;;;27.20;70.50;;;;;;5014162;28;20440;-64
2021/08/11 09:54:27;;;;;;;5.20;4.70;;;27.20;70.60;;;;;;5016276;28;20435;-64
2021/08/11 09:56:52;;;;;;;4.95;4.47;;;27.20;70.60;;;;;;5015028;28;20800;-63
2021/08/11 09:59:18;;;;;;;5.00;4.53;;;27.20;70.50;;;;;;5017576;28;20109;-63
2021/08/11 10:01:44;;;;;;;6.18;4.78;;;27.20;70.50;;;;;;5012575;28;20910;-64
2021/08/11 10:04:11;;;;;;;6.32;5.20;;;27.20;70.50;;;;;;5010030;28;20086;-63
2021/08/11 10:06:45;;;;;;;5.85;5.22;;;27.20;70.60;;;;;;5013089;28;20102;-64
2021/08/11 10:09:21;;;;;;;5.80;5.15;;;27.20;70.50;;;;;;5014115;28;20029;-64
2021/08/11 10:11:49;;;;;;;5.85;4.95;;;27.20;70.70;;;;;;5016541;28;20032;-63
2021/08/11 10:14:17;;;;;;;6.43;5.18;;;27.20;70.50;;;;;;5014733;28;20388;-63
2021/08/11 10:16:43;;;;;;;5.38;4.88;;;27.20;70.50;;;;;;5019060;28;20021;-63
2021/08/11 10:19:11;;;;;;;6.72;4.70;;;27.30;70.50;;;;;;5020126;28;20057;-63
2021/08/11 10:21:48;;;;;;;5.10;4.60;;;27.20;70.10;;;;;;5020363;28;20029;-63
2021/08/11 10:24:15;;;;;;;5.50;4.80;;;27.30;70.80;;;;;;5010675;28;20168;-63
2021/08/11 10:26:42;;;;;;;5.47;4.70;;;27.30;70.20;;;;;;5014078;28;20043;-63
2021/08/11 10:29:08;;;;;;;4.80;4.35;;;27.20;70.00;;;;;;5018943;28;20499;-63
2021/08/11 10:31:35;;;;;;;5.53;4.97;;;27.30;70.00;;;;;;5012079;28;20064;-63
2021/08/11 10:34:01;;;;;;;6.03;4.50;;;27.30;70.10;;;;;;5020106;28;20026;-63
2021/08/11 10:36:30;;;;;;;5.68;4.88;;;27.30;70.10;;;;;;5009793;28;20032;-63
2021/08/11 10:38:57;;;;;;;7.32;4.93;;;27.30;70.10;;;;;;5012620;28;20017;-63
2021/08/11 10:41:28;;;;;;;5.55;5.05;;;27.30;70.00;;;;;;5018586;28;20025;-63
2021/08/11 10:43:55;;;;;;;7.55;5.07;;;27.30;70.00;;;;;;5022285;28;20030;-63
2021/08/11 10:46:22;;;;;;;6.47;5.05;;;27.30;70.10;;;;;;5016844;28;20595;-63
2021/08/11 10:49:03;;;;;;;5.80;5.18;;;27.30;70.00;;;;;;5016578;28;20048;-64
2021/08/11 10:51:41;;;;;;;6.78;4.95;;;27.40;70.10;;;;;;5016762;28;20382;-64
2021/08/11 10:54:08;;;;;;;6.97;4.80;;;27.40;69.80;;;;;;5016431;28;20750;-64
2021/08/11 10:56:51;;;;;;;6.55;5.18;;;27.40;69.90;;;;;;5008729;28;20063;-63
2021/08/11 10:59:23;;;;;;;5.15;4.65;;;27.50;69.90;;;;;;5013523;28;20057;-63
2021/08/11 11:01:52;;;;;;;5.15;4.65;;;27.50;69.20;;;;;;5008135;28;20033;-62
2021/08/11 11:04:41;;;;;;;5.35;4.85;;;27.60;69.00;;;;;;5017407;28;20164;-61
2021/08/11 11:07:12;;;;;;;7.13;5.00;;;27.60;68.70;;;;;;5015131;28;20021;-62
2021/08/11 11:09:40;;;;;;;5.97;4.60;;;27.60;68.60;;;;;;5017754;28;20128;-60
2021/08/11 11:12:17;;;;;;;5.22;4.65;;;27.60;68.70;;;;;;5013462;28;20029;-60
2021/08/11 11:14:56;;;;;;;6.88;4.97;;;27.60;68.30;;;;;;5022203;28;20037;-59
2021/08/11 11:17:23;;;;;;;5.13;4.50;;;27.60;68.20;;;;;;5016244;28;20036;-62
2021/08/11 11:20:04;;;;;;;6.18;4.50;;;27.70;68.20;;;;;;5016700;28;20045;-61
2021/08/11 11:22:55;;;;;;;4.50;4.05;;;27.70;67.90;;;;;;5018397;28;20499;-60
2021/08/11 11:25:41;;;;;;;;;;;27.80;68.30;;;;;;5015216;28;20045;-60
2021/08/11 11:28:07;;;;;;;7.75;4.45;;;27.70;67.80;;;;;;5022005;28;20380;-60
2021/08/11 11:30:34;;;;;;;5.25;4.53;;;27.80;67.70;;;;;;5022184;28;20069;-62
2021/08/11 11:33:17;;;;;;;5.25;4.32;;;27.80;67.20;;;;;;5018333;28;20025;-61
2021/08/11 11:35:44;;;;;;;4.97;4.13;;;27.90;67.10;;;;;;5017738;28;20045;-61
2021/08/11 11:38:12;;;;;;;4.60;4.13;;;27.90;66.70;;;;;;5018820;28;20029;-62
2021/08/11 11:41:03;;;;;;;5.05;4.30;;;27.90;66.40;;;;;;5018130;28;20374;-61
2021/08/11 11:43:31;;;;;;;5.68;4.80;;;28.00;66.40;;;;;;5010698;28;20069;-59
2021/08/11 11:45:58;;;;;;;5.57;4.38;;;28.00;66.00;;;;;;5017540;28;20057;-61
2021/08/11 11:48:25;;;;;;;5.70;3.83;;;28.00;65.70;;;;;;5011629;28;20091;-62
2021/08/11 11:51:01;;;;;;;4.30;3.90;;;28.00;65.50;;;;;;5017389;28;20481;-60
2021/08/11 11:53:32;;;;;;;4.90;4.40;;;28.00;65.30;;;;;;5016251;28;20083;-63
2021/08/11 11:56:07;;;;;;;4.35;3.90;;;28.00;65.20;;;;;;5014865;28;20047;-62
2021/08/11 11:58:41;;;;;;;5.03;4.03;;;28.00;65.20;;;;;;5020693;28;20033;-62
2021/08/11 12:01:07;;;;;;;4.47;4.07;;;28.00;65.10;;;;;;5013481;28;22974;-62
2021/08/11 12:03:39;;;;;;;4.63;4.00;;;28.00;64.70;;;;;;5012636;28;20044;-59
2021/08/11 12:06:06;;;;;;;5.38;4.18;;;28.00;64.60;;;;;;5010703;28;20060;-59
2021/08/11 12:08:32;;;;;;;3.78;3.45;;;28.00;64.60;;;;;;5008036;28;20068;-61
2021/08/11 12:11:02;;;;;;;4.70;4.25;;;28.00;64.30;;;;;;5012802;28;20214;-61
2021/08/11 12:13:50;;;;;;;4.80;3.80;;;28.00;64.20;;;;;;5017448;28;20073;-62
2021/08/11 12:16:18;;;;;;;4.60;3.85;;;28.10;64.40;;;;;;5016600;28;20552;-60
2021/08/11 12:18:47;;;;;;;4.22;3.83;;;28.10;64.30;;;;;;5016025;28;20017;-62
2021/08/11 12:21:14;;;;;;;3.72;3.33;;;28.00;64.00;;;;;;5014534;28;20025;-61
2021/08/11 12:23:41;;;;;;;4.25;3.85;;;28.00;64.00;;;;;;5015081;28;20052;-62
2021/08/11 12:26:12;;;;;;;4.75;3.88;;;28.00;63.80;;;;;;5022262;28;20115;-62
2021/08/11 12:28:45;;;;;;;6.32;3.72;;;28.00;64.00;;;;;;5019921;28;20040;-62
2021/08/11 12:31:17;;;;;;;4.15;3.53;;;28.00;63.60;;;;;;4997976;28;20064;-64
2021/08/11 12:33:45;;;;;;;3.90;3.50;;;27.90;63.30;;;;;;5011019;28;20032;-62
2021/08/11 12:36:22;;;;;;;7.15;4.03;;;27.90;63.60;;;;;;5009720;28;20059;-62
2021/08/11 12:39:07;;;;;;;4.55;3.80;;;27.90;63.30;;;;;;5013642;28;20061;-64
2021/08/11 12:41:37;;;;;;;5.82;4.25;;;27.90;63.30;;;;;;5016294;28;20084;-62
2021/08/11 12:44:22;;;;;;;3.88;3.47;;;27.90;63.20;;;;;;5019415;28;20121;-63
2021/08/11 12:46:53;;;;;;;3.90;3.50;;;27.80;63.00;;;;;;5015138;28;23111;-63
2021/08/11 12:49:20;;;;;;;5.00;3.60;;;27.80;63.10;;;;;;5014444;28;20022;-64
2021/08/11 12:52:10;;;;;;;3.90;3.58;;;27.80;63.20;;;;;;5012997;28;20106;-64
2021/08/11 12:54:54;;;;;;;5.63;3.50;;;27.80;63.10;;;;;;5007938;28;20052;-63